Startpagina
METAR-TAF:

METAR-TAF

Vliegvelden :

Luchthaven Jomo Kenyatta Internationaal

Nairobi, Kenia

breedte: 01-19S, lengte: 036-55E, hoogte: 1624 m

Actueel weer

Dit bericht is 49 minuten geleden gemaakt, om 20:30 UTC
Wind 5 kt uit het noorden
Temperatuur 18°C
Vochtigheid 88%
Druk 1021 hPa
Zicht 10 km of meer
geen wolken onder 1500 m en geen cumulonimbus

METAR: HKJK 232030Z 01005KT CAVOK 18/16 Q1021 NOSIG

Tijdstip: 00:19 (21:19 UTC)

Verwachting

Dit bericht is 34 uur en het 19 minuten geleden gemaakt, om 11:00 UTC
Verwachting geldig van 22 om 12 UTC tot 23 om 18 UTC
Wind 10 kt uit het oostnoordoosten
Zicht 10 km of meer
Verspreide wolken op 2600 ft
Wijzigt naar
van 22 om 20 UTC tot 22 om 23 UTC
Wind 5 kt uit het noordnoordoosten
Verspreide wolken op 500 ft
Gebroken wolken op 1600 ft
Wijzigt naar
van 23 om 08 UTC tot 23 om 11 UTC
Wind 10 kt uit het oostnoordoosten
Verspreide wolken op 2500 ft

TAF: HKJK 221100Z 2212/2318 06010KT 9999 SCT026 BECMG 2220/2223 02005KT SCT005 BKN016 BECMG 2308/2311 06010KT SCT025

Waarnemingen en weersverwachtingen van meer dan 4000 vliegvelden (METAR en TAF).

De beschikbare stations zijn de gele en rode punten op de kaart.

Ga met uw muis naar het station om de naam te zien.

Klik dan om waarnemingen en weersverwachtingen te zien.

kaart wijzigen: klik op de groene knoppen met een zwart kruis om in te zoomen, op de groene knop met een streepje om uit te zoomen of op de groene pijlen voor aangrenzende kaarten.


METAR-TAF: